Time;durP1;ratioP1;P1;durP2;ratioP2;P2;SDS_P1;SDS_P2;PMS_P1;PMS_P2;Temp;Humidity;BMP_temperature;BMP_pressure;BME280_temperature;BME280_humidity;BME280_pressure;Samples;Min_cycle;Max_cycle;Signal;HPM_P1;HPM_P2
2020/04/02 00:01:27;;;;;;;161.41;148.60;;;;;;;19.45;28.85;100410.91;;;;-54
2020/04/02 00:06:23;;;;;;;154.29;142.19;;;;;;;19.44;28.87;100415.85;;;;-54
2020/04/02 00:09:23;;;;;;;150.70;139.01;;;;;;;19.42;28.86;100414.09;;;;-54
2020/04/02 00:15:22;;;;;;;167.69;154.37;;;;;;;19.39;28.87;100405.63;;;;-54
2020/04/02 00:18:22;;;;;;;157.91;145.47;;;;;;;19.38;28.87;100399.01;;;;-54
2020/04/02 00:21:22;;;;;;;175.41;161.27;;;;;;;19.37;28.89;100397.73;;;;-55
2020/04/02 00:24:22;;;;;;;184.74;169.73;;;;;;;19.35;28.90;100393.28;;;;-54
2020/04/02 00:27:22;;;;;;;166.73;153.47;;;;;;;19.34;28.95;100390.83;;;;-54
2020/04/02 00:30:22;;;;;;;165.78;152.59;;;;;;;19.32;28.94;100398.28;;;;-54
2020/04/02 00:33:23;;;;;;;179.33;164.91;;;;;;;19.31;28.92;100401.75;;;;-55
2020/04/02 00:37:22;;;;;;;158.55;146.17;;;;;;;19.30;28.92;100402.27;;;;-55
2020/04/02 00:40:23;;;;;;;156.81;144.43;;;;;;;19.29;28.95;100398.81;;;;-54
2020/04/02 00:45:23;;;;;;;224.46;206.29;;;;;;;19.27;28.94;100395.55;;;;-55
2020/04/02 00:48:23;;;;;;;236.38;217.13;;;;;;;19.26;28.95;100397.45;;;;-54
2020/04/02 00:51:23;;;;;;;233.63;214.69;;;;;;;19.25;28.91;100391.27;;;;-53
2020/04/02 00:54:23;;;;;;;214.77;197.61;;;;;;;19.24;28.97;100392.06;;;;-54
2020/04/02 00:57:23;;;;;;;214.63;197.18;;;;;;;19.22;28.95;100389.97;;;;-54
2020/04/02 01:00:23;;;;;;;218.14;200.56;;;;;;;19.20;28.98;100387.20;;;;-53
2020/04/02 01:04:22;;;;;;;229.44;210.83;;;;;;;19.19;29.00;100390.50;;;;-54
2020/04/02 01:10:23;;;;;;;241.85;222.09;;;;;;;19.17;29.00;100388.47;;;;-54
2020/04/02 01:13:23;;;;;;;203.19;186.86;;;;;;;19.16;28.97;100388.30;;;;-54
2020/04/02 01:18:23;;;;;;;231.82;212.93;;;;;;;19.13;29.00;100390.44;;;;-54
2020/04/02 01:21:22;;;;;;;224.69;206.51;;;;;;;19.12;29.01;100385.63;;;;-54
2020/04/02 01:26:23;;;;;;;209.64;192.61;;;;;;;19.11;29.03;100388.70;;;;-54
2020/04/02 01:30:23;;;;;;;213.04;195.75;;;;;;;19.09;29.04;100387.67;;;;-54
2020/04/02 01:33:23;;;;;;;204.55;187.97;;;;;;;19.08;29.06;100384.05;;;;-54
2020/04/02 01:36:23;;;;;;;222.85;204.77;;;;;;;19.07;29.00;100387.92;;;;-54
2020/04/02 01:41:23;;;;;;;221.77;203.73;;;;;;;19.04;29.07;100380.30;;;;-54
2020/04/02 01:45:23;;;;;;;200.27;184.10;;;;;;;19.04;29.08;100377.84;;;;-54
2020/04/02 01:48:23;;;;;;;195.61;179.75;;;;;;;19.02;29.05;100367.38;;;;-54
2020/04/02 01:54:23;;;;;;;197.42;181.45;;;;;;;19.00;29.08;100364.22;;;;-50
2020/04/02 01:57:23;;;;;;;194.34;178.67;;;;;;;18.99;29.08;100360.83;;;;-51
2020/04/02 02:00:23;;;;;;;177.55;163.35;;;;;;;18.99;29.08;100356.64;;;;-50
2020/04/02 02:04:23;;;;;;;165.99;152.91;;;;;;;18.97;29.08;100350.52;;;;-51
2020/04/02 02:07:23;;;;;;;166.06;152.79;;;;;;;18.96;29.16;100351.21;;;;-50
2020/04/02 02:10:23;;;;;;;169.63;156.21;;;;;;;18.96;29.08;100351.88;;;;-50
2020/04/02 02:15:23;;;;;;;176.16;162.11;;;;;;;18.94;29.16;100345.80;;;;-51
2020/04/02 02:19:23;;;;;;;162.75;149.93;;;;;;;18.92;29.10;100340.77;;;;-50
2020/04/02 02:22:23;;;;;;;171.85;158.11;;;;;;;18.92;29.12;100342.83;;;;-51
2020/04/02 02:28:23;;;;;;;147.73;136.27;;;;;;;18.90;29.17;100343.18;;;;-51
2020/04/02 02:33:23;;;;;;;114.87;106.46;;;;;;;18.89;29.15;100345.37;;;;-51
2020/04/02 02:37:23;;;;;;;131.00;121.17;;;;;;;18.87;29.11;100345.92;;;;-51
2020/04/02 02:41:23;;;;;;;133.28;123.28;;;;;;;18.86;29.15;100349.86;;;;-51
2020/04/02 02:45:23;;;;;;;136.65;126.25;;;;;;;18.85;29.14;100348.20;;;;-51
2020/04/02 02:50:23;;;;;;;114.89;106.55;;;;;;;18.83;29.13;100348.16;;;;-51
2020/04/02 02:54:23;;;;;;;121.89;112.73;;;;;;;18.82;29.21;100344.05;;;;-51
2020/04/02 02:57:23;;;;;;;141.43;130.49;;;;;;;18.81;29.14;100346.68;;;;-51
2020/04/02 03:02:23;;;;;;;154.83;142.71;;;;;;;18.80;29.16;100339.14;;;;-50
2020/04/02 03:06:23;;;;;;;179.44;164.92;;;;;;;18.78;29.18;100336.31;;;;-51
2020/04/02 03:10:23;;;;;;;180.73;166.08;;;;;;;18.76;29.15;100335.45;;;;-51
2020/04/02 03:14:23;;;;;;;198.20;182.07;;;;;;;18.76;29.20;100335.45;;;;-51
2020/04/02 03:17:23;;;;;;;176.83;162.64;;;;;;;18.74;29.15;100337.64;;;;-51
2020/04/02 03:21:23;;;;;;;187.47;172.23;;;;;;;18.73;29.19;100338.16;;;;-51
2020/04/02 03:24:23;;;;;;;134.42;124.33;;;;;;;18.74;29.17;100340.28;;;;-51
2020/04/02 03:27:23;;;;;;;134.33;124.29;;;;;;;18.73;29.19;100338.59;;;;-51
2020/04/02 03:30:23;;;;;;;166.69;153.49;;;;;;;18.71;29.19;100341.69;;;;-51
2020/04/02 03:35:28;;;;;;;181.29;166.52;;;;;;;18.71;29.22;100341.24;;;;-51
2020/04/02 03:38:23;;;;;;;193.77;178.04;;;;;;;18.70;29.16;100345.48;;;;-51
2020/04/02 03:41:23;;;;;;;175.67;161.64;;;;;;;18.70;29.31;100342.31;;;;-51
2020/04/02 03:45:23;;;;;;;184.37;169.53;;;;;;;18.71;29.35;100342.92;;;;-51
2020/04/02 03:48:23;;;;;;;183.47;168.75;;;;;;;18.73;29.28;100341.57;;;;-51
2020/04/02 03:51:23;;;;;;;224.82;206.44;;;;;;;18.74;29.28;100343.39;;;;-51
2020/04/02 03:54:23;;;;;;;211.48;194.38;;;;;;;18.77;29.45;100345.60;;;;-51
2020/04/02 03:57:23;;;;;;;171.93;158.23;;;;;;;18.80;29.41;100343.33;;;;-51
2020/04/02 04:00:23;;;;;;;193.43;177.83;;;;;;;18.84;29.44;100343.11;;;;-51
2020/04/02 04:03:23;;;;;;;186.81;171.80;;;;;;;18.89;29.35;100339.22;;;;-50
2020/04/02 04:06:23;;;;;;;182.54;167.84;;;;;;;18.94;29.34;100340.02;;;;-51
2020/04/02 04:09:23;;;;;;;173.91;160.04;;;;;;;18.98;29.42;100331.98;;;;-51
2020/04/02 04:13:23;;;;;;;151.63;139.91;;;;;;;19.04;29.32;100332.92;;;;-51
2020/04/02 04:16:23;;;;;;;174.66;160.68;;;;;;;19.07;29.42;100335.91;;;;-51
2020/04/02 04:19:23;;;;;;;197.93;181.80;;;;;;;19.14;29.43;100334.80;;;;-50
2020/04/02 04:22:23;;;;;;;198.82;182.76;;;;;;;19.18;29.46;100330.80;;;;-51
2020/04/02 04:25:23;;;;;;;203.47;187.02;;;;;;;19.22;29.49;100332.05;;;;-51
2020/04/02 04:28:23;;;;;;;215.11;197.63;;;;;;;19.25;29.51;100334.17;;;;-51
2020/04/02 04:31:23;;;;;;;169.31;155.87;;;;;;;19.29;29.54;100326.72;;;;-51
2020/04/02 04:34:23;;;;;;;206.49;189.84;;;;;;;19.32;29.56;100327.63;;;;-51
2020/04/02 04:37:23;;;;;;;226.66;208.23;;;;;;;19.35;29.62;100331.27;;;;-51
2020/04/02 04:40:23;;;;;;;222.15;204.11;;;;;;;19.40;29.61;100330.88;;;;-50
2020/04/02 04:43:23;;;;;;;203.66;187.10;;;;;;;19.44;29.60;100330.70;;;;-51
2020/04/02 04:46:23;;;;;;;233.98;214.94;;;;;;;19.47;29.62;100331.57;;;;-51
2020/04/02 04:49:23;;;;;;;229.33;210.51;;;;;;;19.51;29.58;100322.47;;;;-50
2020/04/02 04:52:23;;;;;;;230.42;211.70;;;;;;;19.55;29.55;100328.89;;;;-51
2020/04/02 04:55:23;;;;;;;240.85;221.26;;;;;;;19.58;29.57;100329.53;;;;-51
2020/04/02 04:58:23;;;;;;;235.88;216.59;;;;;;;19.60;29.60;100324.86;;;;-51
2020/04/02 05:01:23;;;;;;;221.69;203.69;;;;;;;19.64;29.57;100331.79;;;;-51
2020/04/02 05:04:23;;;;;;;209.79;192.89;;;;;;;19.67;29.57;100334.03;;;;-50
2020/04/02 05:07:23;;;;;;;236.17;216.81;;;;;;;19.70;29.54;100332.88;;;;-51
2020/04/02 05:10:23;;;;;;;234.45;215.42;;;;;;;19.74;29.53;100334.72;;;;-51
2020/04/02 05:13:23;;;;;;;230.20;211.57;;;;;;;19.75;29.55;100329.84;;;;-50
2020/04/02 05:16:23;;;;;;;201.84;185.57;;;;;;;19.79;29.54;100327.38;;;;-51
2020/04/02 05:19:23;;;;;;;216.75;199.31;;;;;;;19.83;29.48;100331.47;;;;-51
2020/04/02 05:22:23;;;;;;;208.73;191.95;;;;;;;19.88;29.43;100331.23;;;;-51
2020/04/02 05:25:23;;;;;;;206.06;189.45;;;;;;;19.88;29.47;100330.67;;;;-51
2020/04/02 05:28:23;;;;;;;207.27;190.61;;;;;;;19.89;29.46;100327.97;;;;-51
2020/04/02 05:31:23;;;;;;;91.67;84.97;;;;;;;19.93;29.46;100325.47;;;;-51
2020/04/02 05:34:23;;;;;;;124.04;114.83;;;;;;;19.94;29.50;100329.47;;;;-51
2020/04/02 05:37:23;;;;;;;156.26;144.13;;;;;;;19.98;29.42;100327.92;;;;-51
2020/04/02 05:40:23;;;;;;;153.90;141.88;;;;;;;19.99;29.46;100331.21;;;;-51
2020/04/02 05:43:23;;;;;;;149.45;137.88;;;;;;;20.00;29.43;100330.92;;;;-51
2020/04/02 05:46:23;;;;;;;68.85;63.79;;;;;;;20.04;29.38;100335.00;;;;-51
2020/04/02 05:49:23;;;;;;;103.69;96.01;;;;;;;20.07;29.39;100332.37;;;;-51
2020/04/02 05:52:23;;;;;;;120.57;111.67;;;;;;;20.08;29.35;100334.66;;;;-51
2020/04/02 05:55:23;;;;;;;146.43;135.07;;;;;;;20.09;29.46;100334.70;;;;-51
2020/04/02 05:58:23;;;;;;;160.16;147.65;;;;;;;20.12;29.37;100340.29;;;;-51
2020/04/02 06:01:23;;;;;;;167.29;154.11;;;;;;;20.13;29.38;100343.69;;;;-51
2020/04/02 06:04:23;;;;;;;180.16;165.65;;;;;;;20.18;29.31;100342.10;;;;-51
2020/04/02 06:07:23;;;;;;;192.44;176.99;;;;;;;20.18;29.29;100344.34;;;;-51
2020/04/02 06:10:23;;;;;;;160.77;147.96;;;;;;;20.18;29.34;100351.89;;;;-51
2020/04/02 06:13:23;;;;;;;207.25;190.61;;;;;;;20.17;29.35;100351.85;;;;-51
2020/04/02 06:16:23;;;;;;;209.03;192.07;;;;;;;20.17;29.27;100352.73;;;;-51
2020/04/02 06:19:23;;;;;;;193.40;177.83;;;;;;;20.17;29.34;100352.69;;;;-51
2020/04/02 06:22:23;;;;;;;227.33;208.83;;;;;;;20.18;29.34;100350.14;;;;-51
2020/04/02 06:25:23;;;;;;;207.65;190.75;;;;;;;20.18;29.28;100351.83;;;;-51
2020/04/02 06:28:23;;;;;;;203.50;186.99;;;;;;;20.19;29.14;100345.94;;;;-51
2020/04/02 06:31:23;;;;;;;220.39;202.67;;;;;;;20.20;29.23;100346.27;;;;-51
2020/04/02 06:34:23;;;;;;;223.01;205.07;;;;;;;20.22;29.21;100350.98;;;;-51
2020/04/02 06:37:23;;;;;;;238.35;218.88;;;;;;;20.23;29.21;100356.38;;;;-51
2020/04/02 06:40:23;;;;;;;233.69;214.69;;;;;;;20.23;29.20;100360.41;;;;-51
2020/04/02 06:43:23;;;;;;;255.51;234.64;;;;;;;20.23;29.25;100354.38;;;;-51
2020/04/02 06:46:23;;;;;;;245.97;226.03;;;;;;;20.24;29.22;100357.50;;;;-51
2020/04/02 06:49:23;;;;;;;257.25;236.21;;;;;;;20.25;29.25;100357.03;;;;-51
2020/04/02 06:52:23;;;;;;;239.18;219.75;;;;;;;20.27;29.13;100358.35;;;;-50
2020/04/02 06:55:23;;;;;;;234.21;215.33;;;;;;;20.28;29.16;100363.89;;;;-51
2020/04/02 06:58:23;;;;;;;256.75;235.94;;;;;;;20.31;29.12;100359.69;;;;-51
2020/04/02 07:01:23;;;;;;;259.86;238.67;;;;;;;20.31;29.20;100354.98;;;;-50
2020/04/02 07:04:23;;;;;;;276.10;253.20;;;;;;;20.33;29.39;100355.44;;;;-49
2020/04/02 07:07:26;;;;;;;267.51;245.47;;;;;;;20.34;29.83;100352.69;;;;-49
2020/04/02 07:10:23;;;;;;;269.28;247.14;;;;;;;20.36;29.83;100343.22;;;;-50
2020/04/02 07:13:23;;;;;;;276.61;253.81;;;;;;;20.39;29.97;100339.81;;;;-52
2020/04/02 07:16:23;;;;;;;286.25;262.45;;;;;;;20.44;30.53;100341.51;;;;-52
2020/04/02 07:19:23;;;;;;;304.20;278.71;;;;;;;20.46;30.61;100343.66;;;;-52
2020/04/02 07:22:23;;;;;;;297.15;272.31;;;;;;;20.48;30.17;100343.34;;;;-55
2020/04/02 07:25:23;;;;;;;285.85;262.17;;;;;;;20.51;30.75;100349.66;;;;-52
2020/04/02 07:28:23;;;;;;;305.51;279.77;;;;;;;20.52;30.45;100348.53;;;;-52
2020/04/02 07:31:23;;;;;;;306.04;280.38;;;;;;;20.57;30.78;100351.88;;;;-50
2020/04/02 07:34:23;;;;;;;314.14;287.57;;;;;;;20.59;30.42;100345.84;;;;-56
2020/04/02 07:37:23;;;;;;;315.13;288.39;;;;;;;20.62;30.79;100336.83;;;;-48
2020/04/02 07:40:23;;;;;;;293.64;269.14;;;;;;;20.64;30.52;100336.88;;;;-48
2020/04/02 07:43:23;;;;;;;306.69;280.09;;;;;;;20.66;30.67;100330.17;;;;-50
2020/04/02 07:46:23;;;;;;;319.63;292.61;;;;;;;20.69;30.53;100324.23;;;;-49
2020/04/02 07:49:23;;;;;;;304.05;278.35;;;;;;;20.72;30.55;100321.56;;;;-46
2020/04/02 07:52:23;;;;;;;309.20;283.12;;;;;;;20.75;30.49;100321.34;;;;-53
2020/04/02 07:55:23;;;;;;;315.26;288.63;;;;;;;20.78;30.19;100328.50;;;;-52
2020/04/02 07:58:23;;;;;;;313.76;286.73;;;;;;;20.80;30.05;100330.95;;;;-51
2020/04/02 08:01:23;;;;;;;368.29;335.99;;;;;;;20.81;29.85;100330.89;;;;-53
2020/04/02 08:04:23;;;;;;;326.15;298.20;;;;;;;20.83;29.90;100332.14;;;;-50
2020/04/02 08:07:23;;;;;;;302.61;277.33;;;;;;;20.85;30.25;100333.13;;;;-50
2020/04/02 08:10:23;;;;;;;189.27;173.85;;;;;;;20.84;29.94;100336.38;;;;-52
2020/04/02 08:13:23;;;;;;;219.73;201.85;;;;;;;20.81;29.65;100337.04;;;;-52
2020/04/02 08:16:23;;;;;;;247.25;227.11;;;;;;;20.81;29.55;100339.19;;;;-52
2020/04/02 08:19:23;;;;;;;228.56;210.02;;;;;;;20.80;29.35;100341.70;;;;-52
2020/04/02 08:22:23;;;;;;;210.38;193.39;;;;;;;20.79;29.17;100341.13;;;;-52
2020/04/02 08:25:23;;;;;;;238.21;218.88;;;;;;;20.78;29.06;100347.30;;;;-52
2020/04/02 08:28:23;;;;;;;245.99;226.00;;;;;;;20.79;29.28;100344.48;;;;-52
2020/04/02 08:31:23;;;;;;;229.87;211.17;;;;;;;20.78;29.02;100350.99;;;;-52
2020/04/02 08:34:23;;;;;;;254.45;233.76;;;;;;;20.77;28.93;100349.88;;;;-52
2020/04/02 08:37:23;;;;;;;264.31;242.45;;;;;;;20.66;28.05;100348.29;;;;-49
2020/04/02 08:40:23;;;;;;;246.60;226.33;;;;;;;20.43;26.31;100350.87;;;;-49
2020/04/02 08:43:23;;;;;;;225.05;206.75;;;;;;;20.31;25.87;100345.13;;;;-56
2020/04/02 08:46:23;;;;;;;252.02;231.05;;;;;;;20.20;25.35;100341.34;;;;-50
2020/04/02 08:49:23;;;;;;;260.96;239.23;;;;;;;20.07;24.98;100339.52;;;;-46
2020/04/02 08:52:23;;;;;;;258.59;237.16;;;;;;;20.19;25.96;100340.62;;;;-51
2020/04/02 08:55:23;;;;;;;261.71;239.95;;;;;;;20.27;26.53;100334.74;;;;-54
2020/04/02 08:59:23;;;;;;;271.70;249.03;;;;;;;20.40;27.07;100326.92;;;;-47
2020/04/02 09:02:23;;;;;;;267.49;245.23;;;;;;;20.46;27.25;100321.89;;;;-47
2020/04/02 09:05:22;;;;;;;266.23;243.96;;;;;;;20.52;27.54;100318.67;;;;-58
2020/04/02 09:08:23;;;;;;;249.37;228.86;;;;;;;20.57;27.67;100315.84;;;;-58
2020/04/02 09:11:23;;;;;;;268.13;246.03;;;;;;;20.62;27.80;100314.08;;;;-54
2020/04/02 09:14:23;;;;;;;280.71;257.37;;;;;;;20.67;27.88;100306.05;;;;-51
2020/04/02 09:17:23;;;;;;;253.21;232.47;;;;;;;20.70;27.78;100300.18;;;;-50
2020/04/02 09:20:23;;;;;;;249.19;228.85;;;;;;;20.72;27.84;100298.74;;;;-50
2020/04/02 09:23:23;;;;;;;257.61;236.52;;;;;;;20.75;28.02;100291.47;;;;-48
2020/04/02 09:26:23;;;;;;;236.31;217.05;;;;;;;20.78;28.17;100285.60;;;;-48
2020/04/02 09:29:23;;;;;;;238.09;218.82;;;;;;;20.82;28.25;100280.31;;;;-49
2020/04/02 09:32:23;;;;;;;229.24;210.75;;;;;;;20.85;28.34;100282.06;;;;-48
2020/04/02 09:35:23;;;;;;;209.68;192.79;;;;;;;20.84;27.91;100279.81;;;;-46
2020/04/02 09:38:23;;;;;;;239.73;220.28;;;;;;;20.86;27.92;100273.00;;;;-49
2020/04/02 09:41:23;;;;;;;257.15;236.27;;;;;;;20.89;27.86;100266.30;;;;-48
2020/04/02 09:44:23;;;;;;;217.22;199.75;;;;;;;20.90;28.33;100265.69;;;;-48
2020/04/02 09:47:23;;;;;;;226.02;207.67;;;;;;;20.91;28.43;100265.62;;;;-58
2020/04/02 09:50:23;;;;;;;216.69;199.24;;;;;;;20.92;27.98;100266.60;;;;-58
2020/04/02 09:53:23;;;;;;;174.07;160.17;;;;;;;20.94;28.54;100265.73;;;;-55
2020/04/02 09:56:23;;;;;;;203.03;186.62;;;;;;;20.95;28.40;100264.42;;;;-49
2020/04/02 09:59:23;;;;;;;188.26;172.81;;;;;;;20.95;28.24;100263.92;;;;-49
2020/04/02 10:02:23;;;;;;;216.88;199.37;;;;;;;20.94;28.03;100259.45;;;;-48
2020/04/02 10:05:23;;;;;;;238.72;219.29;;;;;;;20.94;28.21;100259.12;;;;-49
2020/04/02 10:08:23;;;;;;;220.61;202.81;;;;;;;20.94;28.13;100255.77;;;;-49
2020/04/02 10:11:23;;;;;;;218.48;200.81;;;;;;;20.94;28.08;100247.77;;;;-49
2020/04/02 10:14:23;;;;;;;243.13;223.44;;;;;;;20.95;28.20;100242.94;;;;-49
2020/04/02 10:17:22;;;;;;;226.55;208.33;;;;;;;20.96;28.22;100246.94;;;;-49
2020/04/02 10:20:23;;;;;;;228.63;210.21;;;;;;;20.97;28.08;100235.28;;;;-49
2020/04/02 10:23:23;;;;;;;243.37;223.57;;;;;;;20.97;28.15;100232.87;;;;-49
2020/04/02 10:26:23;;;;;;;229.07;210.59;;;;;;;20.99;28.35;100234.41;;;;-52
2020/04/02 10:30:23;;;;;;;233.34;214.16;;;;;;;21.01;28.45;100231.33;;;;-48
2020/04/02 10:33:23;;;;;;;220.17;202.39;;;;;;;20.98;27.94;100227.93;;;;-48
2020/04/02 10:36:23;;;;;;;243.29;223.48;;;;;;;20.95;27.43;100232.12;;;;-48
2020/04/02 10:39:23;;;;;;;244.83;224.70;;;;;;;20.93;27.75;100231.22;;;;-53
2020/04/02 10:42:23;;;;;;;232.89;213.92;;;;;;;20.91;27.30;100226.45;;;;-51
2020/04/02 10:45:27;;;;;;;234.11;214.79;;;;;;;20.93;27.39;100231.18;;;;-53
2020/04/02 10:48:23;;;;;;;225.11;206.53;;;;;;;20.92;27.35;100226.95;;;;-52
2020/04/02 10:51:38;;;;;;;221.69;203.79;;;;;;;20.90;27.41;100222.79;;;;-50
2020/04/02 10:54:23;;;;;;;205.13;188.58;;;;;;;20.93;27.66;100219.53;;;;-53
2020/04/02 10:57:23;;;;;;;319.51;292.66;;;;;;;20.92;27.47;100212.02;;;;-53
2020/04/02 11:00:23;;;;;;;295.47;270.88;;;;;;;20.94;27.65;100208.76;;;;-53
2020/04/02 11:03:23;;;;;;;296.53;271.82;;;;;;;20.93;27.71;100206.54;;;;-53
2020/04/02 11:06:23;;;;;;;311.27;285.05;;;;;;;20.93;27.71;100204.25;;;;-53
2020/04/02 11:09:23;;;;;;;274.35;251.81;;;;;;;20.93;27.75;100201.64;;;;-53
2020/04/02 11:12:22;;;;;;;262.85;241.38;;;;;;;20.92;27.81;100196.50;;;;-52
2020/04/02 11:15:23;;;;;;;283.60;260.16;;;;;;;20.93;27.77;100195.96;;;;-53
2020/04/02 11:18:23;;;;;;;257.61;236.70;;;;;;;20.94;27.80;100192.54;;;;-53
2020/04/02 11:21:23;;;;;;;279.85;256.83;;;;;;;20.94;27.85;100185.09;;;;-53
2020/04/02 11:24:23;;;;;;;254.68;233.88;;;;;;;20.94;27.81;100180.89;;;;-53
2020/04/02 11:27:23;;;;;;;252.27;231.68;;;;;;;20.94;27.82;100174.91;;;;-53
2020/04/02 11:30:23;;;;;;;209.42;192.58;;;;;;;20.95;27.81;100171.32;;;;-52
2020/04/02 11:33:23;;;;;;;61.65;57.13;;;;;;;20.95;27.82;100163.27;;;;-53
2020/04/02 11:36:23;;;;;;;48.39;44.84;;;;;;;20.95;27.82;100159.91;;;;-52
2020/04/02 11:39:23;;;;;;;162.17;149.22;;;;;;;20.96;27.83;100161.95;;;;-52
2020/04/02 11:42:23;;;;;;;168.10;154.77;;;;;;;20.96;27.87;100157.02;;;;-53
2020/04/02 11:45:23;;;;;;;172.39;158.65;;;;;;;20.96;27.87;100154.00;;;;-53
2020/04/02 11:48:23;;;;;;;170.78;157.11;;;;;;;20.97;27.91;100148.33;;;;-53
2020/04/02 11:51:23;;;;;;;178.34;164.05;;;;;;;20.98;27.92;100147.18;;;;-53
2020/04/02 11:54:23;;;;;;;164.91;151.85;;;;;;;20.99;27.96;100137.04;;;;-50
2020/04/02 11:57:23;;;;;;;195.47;179.82;;;;;;;20.99;27.94;100128.17;;;;-50
2020/04/02 12:00:23;;;;;;;184.10;169.07;;;;;;;21.00;28.26;100130.56;;;;-52
2020/04/02 12:03:23;;;;;;;181.09;166.52;;;;;;;21.04;28.58;100127.53;;;;-51
2020/04/02 12:06:23;;;;;;;195.75;179.85;;;;;;;21.05;28.51;100121.05;;;;-60
2020/04/02 12:09:23;;;;;;;179.01;164.46;;;;;;;21.06;28.68;100118.87;;;;-64
2020/04/02 12:12:23;;;;;;;185.79;170.46;;;;;;;21.09;28.66;100121.66;;;;-48
2020/04/02 12:15:23;;;;;;;188.03;172.14;;;;;;;21.06;28.02;100109.50;;;;-48
2020/04/02 12:18:22;;;;;;;183.69;167.22;;;;;;;21.07;28.07;100110.51;;;;-50
2020/04/02 12:21:23;;;;;;;178.69;164.22;;;;;;;21.08;28.22;100104.66;;;;-52
2020/04/02 12:24:23;;;;;;;180.49;165.77;;;;;;;21.09;28.71;100097.10;;;;-53
2020/04/02 12:27:23;;;;;;;196.51;180.13;;;;;;;21.10;28.60;100097.87;;;;-48
2020/04/02 12:30:23;;;;;;;168.67;155.13;;;;;;;21.11;28.47;100097.64;;;;-47
2020/04/02 12:33:23;;;;;;;191.43;175.64;;;;;;;21.10;29.00;100087.13;;;;-45
2020/04/02 12:36:23;;;;;;;160.01;147.10;;;;;;;21.10;28.24;100085.95;;;;-53
2020/04/02 12:39:23;;;;;;;194.19;178.67;;;;;;;21.12;28.57;100083.40;;;;-45
2020/04/02 12:42:23;;;;;;;174.62;160.31;;;;;;;21.12;28.63;100080.11;;;;-46
2020/04/02 12:45:23;;;;;;;152.39;140.49;;;;;;;21.14;28.68;100078.83;;;;-52
2020/04/02 12:48:23;;;;;;;178.55;163.87;;;;;;;21.14;28.48;100071.14;;;;-51
2020/04/02 12:51:23;;;;;;;173.54;159.63;;;;;;;21.15;28.26;100068.89;;;;-46
2020/04/02 12:54:22;;;;;;;170.03;156.35;;;;;;;21.17;28.47;100058.03;;;;-46
2020/04/02 12:57:22;;;;;;;185.96;170.79;;;;;;;21.19;28.77;100057.16;;;;-46
2020/04/02 13:00:23;;;;;;;188.34;173.20;;;;;;;21.19;28.64;100050.94;;;;-44
2020/04/02 13:03:23;;;;;;;208.41;191.53;;;;;;;21.20;28.76;100051.48;;;;-47
2020/04/02 13:06:23;;;;;;;185.45;170.33;;;;;;;21.25;29.08;100046.59;;;;-49
2020/04/02 13:09:23;;;;;;;203.35;186.50;;;;;;;21.26;29.10;100043.09;;;;-46
2020/04/02 13:12:23;;;;;;;192.33;176.63;;;;;;;21.25;29.14;100034.94;;;;-50
2020/04/02 13:15:23;;;;;;;209.57;192.35;;;;;;;21.21;28.02;100035.55;;;;-54
2020/04/02 13:18:23;;;;;;;188.09;172.40;;;;;;;21.17;28.18;100034.69;;;;-59
2020/04/02 13:21:23;;;;;;;184.13;168.76;;;;;;;21.16;28.58;100034.09;;;;-50
2020/04/02 13:24:23;;;;;;;192.54;176.74;;;;;;;21.17;28.54;100031.67;;;;-53
2020/04/02 13:27:23;;;;;;;192.20;176.58;;;;;;;21.18;28.58;100033.88;;;;-51
2020/04/02 13:31:01;;;;;;;181.45;166.55;;;;;;;21.20;28.66;100026.72;;;;-48
2020/04/02 13:33:23;;;;;;;183.05;168.21;;;;;;;21.20;28.55;100027.97;;;;-53
2020/04/02 13:36:22;;;;;;;173.84;159.51;;;;;;;21.19;28.56;100022.66;;;;-50
2020/04/02 13:39:23;;;;;;;182.91;168.04;;;;;;;21.16;28.08;100016.86;;;;-48
2020/04/02 13:42:23;;;;;;;190.85;175.24;;;;;;;21.16;28.28;100012.23;;;;-45
2020/04/02 13:45:23;;;;;;;172.25;158.32;;;;;;;21.16;28.39;100011.92;;;;-47
2020/04/02 13:48:23;;;;;;;181.27;166.64;;;;;;;21.17;28.36;100009.27;;;;-47
2020/04/02 13:51:23;;;;;;;163.60;150.52;;;;;;;21.17;28.17;100012.19;;;;-47
2020/04/02 13:54:22;;;;;;;193.47;177.94;;;;;;;21.18;28.16;100005.60;;;;-47
2020/04/02 13:57:23;;;;;;;177.23;163.06;;;;;;;21.18;28.09;100007.11;;;;-48
2020/04/02 14:00:23;;;;;;;199.17;183.04;;;;;;;21.20;28.19;100005.06;;;;-48
2020/04/02 14:03:23;;;;;;;180.89;166.36;;;;;;;21.19;28.19;99994.78;;;;-47
2020/04/02 14:06:23;;;;;;;184.48;169.65;;;;;;;21.20;28.15;99991.02;;;;-47
2020/04/02 14:09:23;;;;;;;169.23;155.65;;;;;;;21.22;28.22;99991.25;;;;-47
2020/04/02 14:12:23;;;;;;;174.01;160.19;;;;;;;21.21;28.25;99985.17;;;;-47
2020/04/02 14:15:22;;;;;;;159.07;146.41;;;;;;;21.21;28.21;99986.61;;;;-47
2020/04/02 14:18:22;;;;;;;161.71;148.84;;;;;;;21.22;28.23;99975.97;;;;-47
2020/04/02 14:21:22;;;;;;;163.14;150.13;;;;;;;21.22;28.28;99976.41;;;;-48
2020/04/02 14:25:23;;;;;;;165.46;152.27;;;;;;;21.21;28.32;99971.57;;;;-47
2020/04/02 14:28:23;;;;;;;163.27;150.27;;;;;;;21.19;28.30;99973.29;;;;-48
2020/04/02 14:31:23;;;;;;;162.18;149.34;;;;;;;21.19;28.28;99971.17;;;;-47
2020/04/02 14:34:23;;;;;;;160.38;147.69;;;;;;;21.18;28.24;99968.46;;;;-47
2020/04/02 14:37:22;;;;;;;180.21;165.79;;;;;;;21.17;28.25;99962.92;;;;-48
2020/04/02 14:40:23;;;;;;;164.03;151.01;;;;;;;21.16;28.30;99961.72;;;;-47
2020/04/02 14:43:23;;;;;;;169.34;155.86;;;;;;;21.17;28.30;99959.45;;;;-47
2020/04/02 14:46:23;;;;;;;169.77;156.26;;;;;;;21.17;28.29;99957.02;;;;-47
2020/04/02 14:49:23;;;;;;;163.65;150.64;;;;;;;21.16;28.21;99950.43;;;;-48
2020/04/02 14:52:23;;;;;;;158.68;146.11;;;;;;;21.16;28.25;99947.34;;;;-48
2020/04/02 14:55:22;;;;;;;157.54;145.20;;;;;;;21.16;28.41;99943.48;;;;-50
2020/04/02 14:58:23;;;;;;;170.73;156.99;;;;;;;21.15;29.06;99945.13;;;;-50
2020/04/02 15:01:22;;;;;;;179.59;165.21;;;;;;;21.18;29.11;99943.61;;;;-49
2020/04/02 15:04:23;;;;;;;185.65;170.75;;;;;;;21.17;29.28;99942.94;;;;-49
2020/04/02 15:07:23;;;;;;;185.96;170.70;;;;;;;21.20;29.26;99940.30;;;;-53
2020/04/02 15:10:23;;;;;;;170.73;157.03;;;;;;;21.17;28.36;99936.62;;;;-50
2020/04/02 15:14:22;;;;;;;132.89;122.01;;;;;;;21.24;29.84;99931.95;;;;-55
2020/04/02 15:17:23;;;;;;;6.53;4.85;;;;;;;21.26;29.51;99934.03;;;;-53
2020/04/02 15:20:23;;;;;;;7.91;4.33;;;;;;;21.28;29.50;99932.23;;;;-50
2020/04/02 15:23:23;;;;;;;6.25;4.97;;;;;;;21.29;29.54;99928.71;;;;-49
2020/04/02 15:26:23;;;;;;;98.35;90.37;;;;;;;21.31;29.50;99923.48;;;;-48
2020/04/02 15:29:23;;;;;;;207.53;190.78;;;;;;;21.30;29.20;99916.41;;;;-52
2020/04/02 15:32:22;;;;;;;194.95;179.19;;;;;;;21.31;29.41;99916.78;;;;-52
2020/04/02 15:37:22;;;;;;;212.55;195.32;;;;;;;21.31;29.61;99913.58;;;;-56
2020/04/02 15:40:23;;;;;;;199.92;183.76;;;;;;;21.32;29.86;99910.08;;;;-50
2020/04/02 15:43:23;;;;;;;192.53;176.95;;;;;;;21.32;29.99;99911.52;;;;-51
2020/04/02 15:48:22;;;;;;;220.83;202.69;;;;;;;21.28;29.01;99910.88;;;;-53
2020/04/02 15:51:22;;;;;;;236.98;217.56;;;;;;;21.31;29.26;99909.78;;;;-49
2020/04/02 15:54:22;;;;;;;237.28;217.89;;;;;;;21.31;29.36;99906.80;;;;-49
2020/04/02 15:57:23;;;;;;;203.43;187.14;;;;;;;21.31;29.19;99902.33;;;;-49
2020/04/02 16:00:23;;;;;;;230.65;211.96;;;;;;;21.30;29.38;99902.47;;;;-54
2020/04/02 16:04:22;;;;;;;225.06;206.97;;;;;;;21.30;29.44;99898.77;;;;-56
2020/04/02 16:07:23;;;;;;;234.07;215.16;;;;;;;21.30;29.43;99897.53;;;;-58
2020/04/02 16:10:23;;;;;;;221.85;203.92;;;;;;;21.32;29.66;99895.97;;;;-58
2020/04/02 16:15:23;;;;;;;228.61;210.13;;;;;;;21.35;29.56;99893.38;;;;-58
2020/04/02 16:18:23;;;;;;;243.22;223.44;;;;;;;21.34;29.70;99887.39;;;;-55
2020/04/02 16:21:23;;;;;;;220.76;202.95;;;;;;;21.36;29.57;99888.26;;;;-51
2020/04/02 16:24:23;;;;;;;170.43;156.85;;;;;;;21.34;29.19;99888.91;;;;-51
2020/04/02 16:27:23;;;;;;;178.68;164.44;;;;;;;21.37;29.81;99887.55;;;;-53
2020/04/02 16:30:23;;;;;;;176.11;162.15;;;;;;;21.36;29.61;99888.50;;;;-48
2020/04/02 16:33:23;;;;;;;184.29;169.45;;;;;;;21.35;29.62;99889.00;;;;-56
2020/04/02 16:36:23;;;;;;;211.60;194.55;;;;;;;21.36;29.60;99886.98;;;;-53
2020/04/02 16:39:23;;;;;;;214.13;196.94;;;;;;;21.35;29.16;99888.43;;;;-52
2020/04/02 16:43:23;;;;;;;223.90;205.84;;;;;;;21.35;29.56;99890.41;;;;-51
2020/04/02 16:46:22;;;;;;;186.73;171.58;;;;;;;21.35;29.43;99891.86;;;;-51
2020/04/02 16:49:22;;;;;;;155.67;143.50;;;;;;;21.34;29.71;99887.87;;;;-55
2020/04/02 16:52:22;;;;;;;157.41;145.03;;;;;;;21.34;29.51;99890.55;;;;-58